Time;durP1;ratioP1;P1;durP2;ratioP2;P2;SDS_P1;SDS_P2;PMS_P1;PMS_P2;Temp;Humidity;BMP_temperature;BMP_pressure;BME280_temperature;BME280_humidity;BME280_pressure;Samples;Min_cycle;Max_cycle;Signal;HPM_P1;HPM_P2
2024/02/24 00:01:18;;;;;;;;;;;22.70;37.70;;;;;;5074012;28;19928;-64
2024/02/24 00:03:46;;;;;;;;;;;22.70;37.20;;;;;;5073833;28;20041;-64
2024/02/24 00:06:12;;;;;;;;;;;22.60;37.10;;;;;;5073683;28;20378;-64
2024/02/24 00:08:39;;;;;;;;;;;22.70;37.20;;;;;;5073694;28;19946;-64
2024/02/24 00:11:06;;;;;;;;;;;22.70;37.20;;;;;;5073502;28;19935;-65
2024/02/24 00:13:33;;;;;;;;;;;22.70;37.20;;;;;;5073862;28;20263;-64
2024/02/24 00:16:03;;;;;;;;;;;22.70;37.20;;;;;;5073474;28;20007;-64
2024/02/24 00:18:30;;;;;;;;;;;22.70;37.20;;;;;;5073881;28;19931;-64
2024/02/24 00:20:57;;;;;;;;;;;22.70;37.20;;;;;;5073274;28;19931;-64
2024/02/24 00:23:24;;;;;;;;;;;22.70;37.20;;;;;;5073412;28;20365;-64
2024/02/24 00:25:51;;;;;;;;;;;22.70;37.20;;;;;;5073665;28;20015;-64
2024/02/24 00:28:18;;;;;;;;;;;22.60;37.20;;;;;;5073446;28;19924;-64
2024/02/24 00:30:44;;;;;;;;;;;22.60;37.20;;;;;;5073932;28;19925;-64
2024/02/24 00:33:11;;;;;;;;;;;22.60;37.20;;;;;;5073447;28;19928;-64
2024/02/24 00:35:39;;;;;;;;;;;22.60;37.20;;;;;;5073626;28;20262;-64
2024/02/24 00:38:06;;;;;;;;;;;22.60;37.20;;;;;;5073574;28;19925;-65
2024/02/24 00:40:33;;;;;;;;;;;22.60;37.20;;;;;;5073669;28;19928;-64
2024/02/24 00:43:00;;;;;;;;;;;22.60;37.40;;;;;;5072751;28;19962;-64
2024/02/24 00:45:27;;;;;;;;;;;22.60;37.30;;;;;;5073485;28;20027;-64
2024/02/24 00:47:54;;;;;;;;;;;22.60;37.30;;;;;;5073066;28;19932;-64
2024/02/24 00:50:28;;;;;;;;;;;22.60;37.40;;;;;;5073344;28;19932;-64
2024/02/24 00:52:56;;;;;;;;;;;22.60;38.00;;;;;;5072946;28;19925;-64
2024/02/24 00:55:23;;;;;;;;;;;22.60;37.40;;;;;;5073396;28;20389;-64
2024/02/24 00:57:50;;;;;;;;;;;22.60;37.30;;;;;;5073108;28;19925;-64
2024/02/24 01:00:17;;;;;;;;;;;22.60;37.30;;;;;;5073350;28;19925;-65
2024/02/24 01:02:44;;;;;;;;;;;22.60;37.20;;;;;;5072773;28;19924;-64
2024/02/24 01:05:11;;;;;;;;;;;22.60;37.20;;;;;;5073200;28;19924;-65
2024/02/24 01:07:39;;;;;;;;;;;22.60;37.10;;;;;;5073238;28;20042;-64
2024/02/24 01:10:07;;;;;;;;;;;22.60;37.10;;;;;;5073283;28;20015;-66
2024/02/24 01:12:34;;;;;;;;;;;22.60;37.10;;;;;;5072982;28;19964;-65
2024/02/24 01:15:01;;;;;;;;;;;22.60;37.10;;;;;;5072619;28;20378;-64
2024/02/24 01:17:28;;;;;;;;;;;22.60;37.10;;;;;;5073017;28;20439;-65
2024/02/24 01:19:55;;;;;;;;;;;22.60;37.10;;;;;;5073035;28;19976;-65
2024/02/24 01:22:23;;;;;;;;;;;22.60;37.10;;;;;;5073073;28;20018;-64
2024/02/24 01:24:51;;;;;;;;;;;22.60;37.10;;;;;;5072634;28;19932;-64
2024/02/24 01:27:19;;;;;;;;;;;22.60;37.10;;;;;;5073330;28;19955;-65
2024/02/24 01:29:46;;;;;;;;;;;22.60;37.10;;;;;;5072726;28;19924;-64
2024/02/24 01:32:13;;;;;;;;;;;22.60;37.10;;;;;;5072777;28;19958;-65
2024/02/24 01:34:40;;;;;;;;;;;22.60;37.10;;;;;;5073877;28;20386;-64
2024/02/24 01:37:07;;;;;;;;;;;22.60;37.10;;;;;;5076833;28;20027;-65
2024/02/24 01:39:35;;;;;;;;;;;22.60;37.20;;;;;;5076839;28;20393;-64
2024/02/24 01:42:02;;;;;;;;;;;22.60;37.20;;;;;;5076156;28;20396;-64
2024/02/24 01:44:29;;;;;;;;;;;22.60;37.20;;;;;;5076916;28;19925;-64
2024/02/24 01:46:56;;;;;;;;;;;22.60;37.20;;;;;;5076355;28;19931;-64
2024/02/24 01:49:23;;;;;;;;;;;22.60;37.20;;;;;;5077223;28;19974;-64
2024/02/24 01:51:51;;;;;;;;;;;22.60;37.20;;;;;;5076611;28;19938;-64
2024/02/24 01:54:18;;;;;;;;;;;22.60;37.30;;;;;;5076123;28;19999;-64
2024/02/24 01:56:45;;;;;;;;;;;22.60;37.30;;;;;;5076762;28;19925;-64
2024/02/24 01:59:12;;;;;;;;;;;22.50;37.30;;;;;;5076167;28;19925;-64
2024/02/24 02:01:39;;;;;;;;;;;22.60;37.40;;;;;;5076135;28;19970;-64
2024/02/24 02:04:07;;;;;;;;;;;22.50;37.30;;;;;;5075545;28;20389;-64
2024/02/24 02:06:34;;;;;;;;;;;22.60;37.30;;;;;;5076340;28;19928;-64
2024/02/24 02:09:02;;;;;;;;;;;22.60;37.30;;;;;;5076148;28;20015;-64
2024/02/24 02:11:29;;;;;;;;;;;22.60;37.20;;;;;;5076195;28;19925;-64
2024/02/24 02:13:56;;;;;;;;;;;22.60;37.20;;;;;;5075891;28;20320;-64
2024/02/24 02:16:23;;;;;;;;;;;22.60;37.20;;;;;;5075941;28;19931;-64
2024/02/24 02:18:50;;;;;;;;;;;22.60;37.20;;;;;;5075881;28;20003;-64
2024/02/24 02:21:17;;;;;;;;;;;22.60;37.20;;;;;;5075776;28;19924;-65
2024/02/24 02:23:44;;;;;;;;;;;22.60;37.20;;;;;;5075415;28;19974;-64
2024/02/24 02:26:13;;;;;;;;;;;22.60;37.20;;;;;;5075689;28;19939;-64
2024/02/24 02:28:40;;;;;;;;;;;22.60;37.20;;;;;;5075740;28;19994;-64
2024/02/24 02:31:07;;;;;;;;;;;22.60;37.20;;;;;;5075805;28;19966;-64
2024/02/24 02:33:34;;;;;;;;;;;22.60;37.20;;;;;;5075535;28;19928;-65
2024/02/24 02:36:02;;;;;;;;;;;22.60;37.20;;;;;;5075869;28;19924;-65
2024/02/24 02:38:29;;;;;;;;;;;22.60;37.20;;;;;;5074540;28;19970;-64
2024/02/24 02:40:55;;;;;;;;;;;22.60;37.20;;;;;;5075374;28;20274;-64
2024/02/24 02:43:22;;;;;;;;;;;22.60;37.20;;;;;;5075594;28;19967;-65
2024/02/24 02:45:49;;;;;;;;;;;22.60;37.20;;;;;;5074298;28;19932;-64
2024/02/24 02:48:16;;;;;;;;;;;22.60;37.20;;;;;;5075277;28;20377;-64
2024/02/24 02:50:44;;;;;;;;;;;22.50;37.10;;;;;;5075262;28;19924;-64
2024/02/24 02:53:11;;;;;;;;;;;22.60;37.20;;;;;;5075180;28;20022;-64
2024/02/24 02:55:38;;;;;;;;;;;22.60;37.20;;;;;;5075033;28;20019;-64
2024/02/24 02:58:06;;;;;;;;;;;22.60;37.20;;;;;;5075297;28;19929;-64
2024/02/24 03:00:33;;;;;;;;;;;22.50;37.20;;;;;;5074984;28;20366;-64
2024/02/24 03:03:01;;;;;;;;;;;22.50;37.30;;;;;;5074785;28;19928;-64
2024/02/24 03:05:28;;;;;;;;;;;22.50;37.30;;;;;;5074047;28;19950;-64
2024/02/24 03:07:55;;;;;;;;;;;22.50;37.30;;;;;;5075109;28;19928;-64
2024/02/24 03:10:22;;;;;;;;;;;22.50;37.40;;;;;;5074952;28;20034;-64
2024/02/24 03:12:49;;;;;;;;;;;22.50;37.40;;;;;;5074749;28;20366;-64
2024/02/24 03:15:16;;;;;;;;;;;22.50;37.30;;;;;;5074816;28;19932;-64
2024/02/24 03:17:43;;;;;;;;;;;22.50;37.30;;;;;;5075182;28;19960;-64
2024/02/24 03:20:10;;;;;;;;;;;22.50;37.30;;;;;;5074764;28;19928;-64
2024/02/24 03:22:38;;;;;;;;;;;22.50;37.20;;;;;;5074844;28;19966;-64
2024/02/24 03:25:05;;;;;;;;;;;22.50;37.20;;;;;;5074720;28;19990;-64
2024/02/24 03:27:32;;;;;;;;;;;22.60;37.20;;;;;;5074525;28;19978;-64
2024/02/24 03:29:59;;;;;;;;;;;22.50;37.20;;;;;;5074806;28;19993;-64
2024/02/24 03:32:26;;;;;;;;;;;22.60;37.20;;;;;;5074575;28;20012;-64
2024/02/24 03:34:53;;;;;;;;;;;22.50;37.20;;;;;;5074236;28;19932;-64
2024/02/24 03:37:20;;;;;;;;;;;22.50;37.20;;;;;;5074278;28;19959;-64
2024/02/24 03:39:47;;;;;;;;;;;22.50;37.20;;;;;;5074233;28;20404;-64
2024/02/24 03:42:14;;;;;;;;;;;22.50;37.20;;;;;;5074514;28;20015;-64
2024/02/24 03:44:41;;;;;;;;;;;22.50;37.30;;;;;;5074420;28;19932;-64
2024/02/24 03:47:08;;;;;;;;;;;22.50;37.20;;;;;;5074151;28;19928;-64
2024/02/24 03:49:35;;;;;;;;;;;22.50;37.30;;;;;;5074120;28;19935;-64
2024/02/24 03:52:02;;;;;;;;;;;22.50;37.20;;;;;;5074257;28;20427;-64
2024/02/24 03:54:29;;;;;;;;;;;22.50;37.20;;;;;;5073926;28;19928;-64
2024/02/24 03:56:55;;;;;;;;;;;22.50;37.30;;;;;;5073382;28;19963;-64
2024/02/24 03:59:22;;;;;;;;;;;22.50;37.30;;;;;;5074140;28;20332;-64
2024/02/24 04:01:49;;;;;;;;;;;22.50;37.30;;;;;;5073662;28;19928;-64
2024/02/24 04:04:16;;;;;;;;;;;22.50;37.30;;;;;;5073749;28;19978;-64
2024/02/24 04:06:43;;;;;;;;;;;22.50;37.30;;;;;;5073920;28;19994;-64
2024/02/24 04:09:11;;;;;;;;;;;22.50;37.40;;;;;;5073653;28;19929;-64
2024/02/24 04:11:38;;;;;;;;;;;22.40;37.30;;;;;;5074147;28;19931;-64
2024/02/24 04:14:05;;;;;;;;;;;22.50;37.50;;;;;;5073973;28;19928;-64
2024/02/24 04:16:32;;;;;;;;;;;22.40;37.40;;;;;;5073612;28;19924;-64
2024/02/24 04:19:00;;;;;;;;;;;22.40;37.50;;;;;;5073473;28;19925;-64
2024/02/24 04:21:27;;;;;;;;;;;22.50;37.50;;;;;;5073094;28;19970;-64
2024/02/24 04:23:55;;;;;;;;;;;22.40;37.50;;;;;;5073590;28;19925;-64
2024/02/24 04:26:22;;;;;;;;;;;22.40;37.40;;;;;;5073399;28;19925;-63
2024/02/24 04:28:49;;;;;;;;;;;22.50;37.40;;;;;;5073410;28;19931;-64
2024/02/24 04:31:16;;;;;;;;;;;22.50;37.40;;;;;;5073823;28;19928;-64
2024/02/24 04:33:43;;;;;;;;;;;22.50;37.40;;;;;;5073570;28;19924;-64
2024/02/24 04:36:10;;;;;;;;;;;22.50;37.30;;;;;;5073101;28;19935;-64
2024/02/24 04:38:37;;;;;;;;;;;22.50;37.30;;;;;;5073305;28;19970;-64
2024/02/24 04:41:04;;;;;;;;;;;22.50;37.30;;;;;;5073252;28;19928;-64
2024/02/24 04:43:31;;;;;;;;;;;22.50;37.20;;;;;;5073515;28;19959;-64
2024/02/24 04:46:02;;;;;;;;;;;22.50;37.20;;;;;;5073527;28;20302;-64
2024/02/24 04:48:28;;;;;;;;;;;22.50;37.10;;;;;;5073875;28;19930;-64
2024/02/24 04:50:56;;;;;;;;;;;22.50;37.00;;;;;;5072870;28;20394;-64
2024/02/24 04:53:28;;;;;;;;;;;22.50;37.00;;;;;;5073455;28;19924;-64
2024/02/24 04:55:55;;;;;;;;;;;22.50;37.00;;;;;;5072755;28;19928;-64
2024/02/24 04:58:24;;;;;;;;;;;22.50;37.00;;;;;;5073382;28;20031;-64
2024/02/24 05:00:51;;;;;;;;;;;22.50;37.00;;;;;;5073170;28;19971;-64
2024/02/24 05:03:18;;;;;;;;;;;22.50;37.00;;;;;;5073157;28;19932;-64
2024/02/24 05:05:45;;;;;;;;;;;22.60;37.10;;;;;;5073221;28;19929;-64
2024/02/24 05:08:13;;;;;;;;;;;22.50;37.00;;;;;;5071866;28;19970;-64
2024/02/24 05:10:40;;;;;;;;;;;22.50;37.00;;;;;;5076404;28;19998;-64
2024/02/24 05:13:07;;;;;;;;;;;22.50;37.00;;;;;;5077300;28;19994;-64
2024/02/24 05:15:34;;;;;;;;;;;22.50;37.10;;;;;;5077064;28;19954;-64
2024/02/24 05:18:01;;;;;;;;;;;22.50;37.10;;;;;;5077077;28;20369;-64
2024/02/24 05:20:28;;;;;;;;;;;22.50;37.10;;;;;;5076920;28;19928;-64
2024/02/24 05:22:55;;;;;;;;;;;22.50;37.20;;;;;;5076890;28;19928;-64
2024/02/24 05:25:22;;;;;;;;;;;22.50;37.30;;;;;;5076789;28;19925;-64
2024/02/24 05:27:49;;;;;;;;;;;22.50;37.30;;;;;;5077167;28;19924;-65
2024/02/24 05:30:16;;;;;;;;;;;22.50;37.30;;;;;;5076819;28;19981;-64
2024/02/24 05:32:43;;;;;;;;;;;22.50;37.30;;;;;;5076668;28;19932;-64
2024/02/24 05:35:10;;;;;;;;;;;22.50;37.30;;;;;;5076483;28;19928;-64
2024/02/24 05:37:37;;;;;;;;;;;22.50;37.30;;;;;;5077013;28;20277;-64
2024/02/24 05:40:04;;;;;;;;;;;22.50;37.30;;;;;;5075561;28;19924;-65
2024/02/24 05:42:31;;;;;;;;;;;22.50;37.30;;;;;;5075841;28;19972;-64
2024/02/24 05:44:58;;;;;;;;;;;22.50;37.30;;;;;;5074199;28;19928;-64
2024/02/24 05:47:25;;;;;;;;;;;22.50;37.30;;;;;;5071815;28;19924;-64
2024/02/24 05:49:52;;;;;;;;;;;22.50;37.30;;;;;;5075211;28;20027;-65
2024/02/24 05:52:19;;;;;;;;;;;22.60;37.30;;;;;;5076534;28;20323;-64
2024/02/24 05:54:46;;;;;;;;;;;22.60;37.30;;;;;;5070063;28;20513;-65
2024/02/24 05:57:13;;;;;;;;;;;22.60;37.30;;;;;;5069854;28;19924;-64
2024/02/24 05:59:40;;;;;;;;;;;22.60;37.20;;;;;;5075846;28;19930;-64
2024/02/24 06:02:07;;;;;;;;;;;22.60;37.20;;;;;;5074036;28;20413;-64
2024/02/24 06:04:34;;;;;;;;;;;22.60;37.20;;;;;;5075502;28;19925;-64
2024/02/24 06:07:01;;;;;;;;;;;22.60;37.20;;;;;;5075690;28;20111;-64
2024/02/24 06:09:28;;;;;;;;;;;22.60;37.20;;;;;;5076378;28;20028;-64
2024/02/24 06:11:54;;;;;;;;;;;22.70;37.10;;;;;;5075132;28;19925;-65
2024/02/24 06:14:22;;;;;;;;;;;22.70;37.10;;;;;;5076089;28;20024;-64
2024/02/24 06:16:49;;;;;;;;;;;22.70;37.10;;;;;;5075849;28;19932;-64
2024/02/24 06:19:15;;;;;;;;;;;22.70;37.00;;;;;;5076077;28;19924;-64
2024/02/24 06:21:42;;;;;;;;;;;22.70;37.00;;;;;;5075807;28;19931;-64
2024/02/24 06:24:09;;;;;;;;;;;22.70;36.90;;;;;;5076226;28;19947;-64
2024/02/24 06:26:36;;;;;;;;;;;22.70;36.90;;;;;;5075715;28;19928;-64
2024/02/24 06:29:03;;;;;;;;;;;22.70;36.90;;;;;;5075666;28;20378;-64
2024/02/24 06:31:30;;;;;;;;;;;22.80;36.90;;;;;;5075715;28;19928;-64
2024/02/24 06:33:57;;;;;;;;;;;22.80;36.90;;;;;;5076060;28;20344;-67
2024/02/24 06:36:25;;;;;;;;;;;22.80;36.90;;;;;;5075367;28;19932;-64
2024/02/24 06:38:52;;;;;;;;;;;22.80;36.80;;;;;;5075742;28;19932;-64
2024/02/24 06:41:19;;;;;;;;;;;22.80;36.80;;;;;;5075395;28;19924;-64
2024/02/24 06:43:46;;;;;;;;;;;22.90;36.80;;;;;;5076032;28;19924;-64
2024/02/24 06:46:14;;;;;;;;;;;22.90;36.70;;;;;;5075379;28;19975;-64
2024/02/24 06:48:41;;;;;;;;;;;22.90;36.70;;;;;;5075735;28;19924;-64
2024/02/24 06:51:09;;;;;;;;;;;23.00;36.70;;;;;;5075105;28;20042;-64
2024/02/24 06:53:35;;;;;;;;;;;23.00;36.60;;;;;;5075454;28;19924;-64
2024/02/24 06:56:07;;;;;;;;;;;23.00;36.50;;;;;;5075449;28;19931;-65
2024/02/24 06:58:35;;;;;;;;;;;23.10;36.50;;;;;;5075568;28;19925;-64
2024/02/24 07:01:05;;;;;;;;;;;23.10;36.40;;;;;;5074981;28;19935;-66
2024/02/24 07:03:32;;;;;;;;;;;23.10;36.40;;;;;;5075295;28;20400;-64
2024/02/24 07:06:03;;;;;;;;;;;23.10;36.30;;;;;;5074993;28;19925;-64
2024/02/24 07:08:30;;;;;;;;;;;23.10;36.20;;;;;;5075074;28;19931;-64
2024/02/24 07:10:57;;;;;;;;;;;23.20;36.20;;;;;;5075060;28;20400;-64
2024/02/24 07:13:24;;;;;;;;;;;23.20;36.10;;;;;;5070988;28;19925;-64
2024/02/24 07:15:51;;;;;;;;;;;23.30;36.10;;;;;;5060627;28;19925;-64
2024/02/24 07:18:18;;;;;;;;;;;23.30;36.10;;;;;;5074792;28;19974;-64
2024/02/24 07:20:45;;;;;;;;;;;23.30;36.00;;;;;;5071381;28;19924;-64
2024/02/24 07:23:12;;;;;;;;;;;23.30;36.00;;;;;;5074472;28;19970;-64
2024/02/24 07:25:41;;;;;;;;;;;23.40;36.00;;;;;;5075070;28;19931;-64
2024/02/24 07:28:08;;;;;;;;;;;23.40;35.90;;;;;;5074410;28;19925;-64
2024/02/24 07:30:35;;;;;;;;;;;23.40;35.80;;;;;;5071135;28;19924;-64
2024/02/24 07:33:02;;;;;;;;;;;23.40;35.80;;;;;;5072041;28;19924;-64
2024/02/24 07:35:30;;;;;;;;;;;23.40;35.80;;;;;;5072446;28;19925;-64
2024/02/24 07:37:57;;;;;;;;;;;23.40;35.70;;;;;;5073816;28;20385;-64
2024/02/24 07:40:23;;;;;;;;;;;23.50;35.70;;;;;;5071293;28;19933;-64
2024/02/24 07:42:53;;;;;;;;;;;23.50;35.70;;;;;;5071891;28;19924;-64
2024/02/24 07:45:22;;;;;;;;;;;23.50;35.60;;;;;;5073212;28;19946;-64
2024/02/24 07:47:49;;;;;;;;;;;23.60;35.70;;;;;;5070073;28;19932;-64
2024/02/24 07:50:17;;;;;;;;;;;23.60;35.60;;;;;;5054352;28;19978;-65
2024/02/24 07:52:44;;;;;;;;;;;23.60;35.50;;;;;;5055270;28;19925;-64
2024/02/24 07:55:13;;;;;;;;;;;23.70;35.50;;;;;;5061910;28;19924;-65
2024/02/24 07:57:40;;;;;;;;;;;23.70;35.30;;;;;;5058913;28;19955;-64
2024/02/24 08:00:08;;;;;;;;;;;23.80;35.30;;;;;;5055826;28;20385;-64
2024/02/24 08:02:36;;;;;;;;;;;23.80;35.20;;;;;;5061770;28;20421;-63
2024/02/24 08:05:04;;;;;;;;;;;23.90;35.20;;;;;;5054041;28;19929;-63
2024/02/24 08:07:31;;;;;;;;;;;23.90;35.10;;;;;;5053932;28;19925;-64
2024/02/24 08:09:58;;;;;;;;;;;24.00;35.00;;;;;;5061747;28;19943;-64
2024/02/24 08:12:25;;;;;;;;;;;24.00;34.90;;;;;;5070969;28;19978;-64
2024/02/24 08:14:52;;;;;;;;;;;24.10;34.80;;;;;;5073310;28;20437;-64
2024/02/24 08:17:19;;;;;;;;;;;24.10;34.70;;;;;;5071596;28;19932;-64
2024/02/24 08:19:46;;;;;;;;;;;24.10;34.60;;;;;;5067944;28;20005;-64
2024/02/24 08:22:13;;;;;;;;;;;24.10;34.60;;;;;;5065828;28;20263;-64
2024/02/24 08:24:40;;;;;;;;;;;24.20;34.50;;;;;;5070367;28;19925;-64
2024/02/24 08:27:07;;;;;;;;;;;24.20;34.40;;;;;;5069342;28;19978;-64
2024/02/24 08:29:34;;;;;;;;;;;24.30;34.40;;;;;;5056931;28;19925;-64
2024/02/24 08:32:01;;;;;;;;;;;24.30;34.40;;;;;;5071757;28;19939;-64
2024/02/24 08:34:28;;;;;;;;;;;24.30;34.20;;;;;;5067252;28;20267;-64
2024/02/24 08:36:55;;;;;;;;;;;24.30;34.20;;;;;;5065639;28;19929;-64
2024/02/24 08:39:22;;;;;;;;;;;24.30;34.20;;;;;;5070344;28;19925;-64
2024/02/24 08:41:49;;;;;;;;;;;24.30;34.10;;;;;;5068958;28;19924;-64
2024/02/24 08:44:16;;;;;;;;;;;24.40;34.10;;;;;;5054783;28;19925;-64
2024/02/24 08:46:42;;;;;;;;;;;24.40;34.00;;;;;;5053388;28;19928;-65
2024/02/24 08:49:09;;;;;;;;;;;24.50;34.10;;;;;;5052464;28;19929;-64
2024/02/24 08:51:36;;;;;;;;;;;24.50;33.90;;;;;;5069550;28;19931;-64
2024/02/24 08:54:03;;;;;;;;;;;24.50;34.50;;;;;;5071607;28;19924;-64
2024/02/24 08:56:31;;;;;;;;;;;24.50;33.80;;;;;;5069234;28;19950;-64
2024/02/24 08:58:58;;;;;;;;;;;24.50;33.80;;;;;;5072750;28;20361;-64
2024/02/24 09:01:25;;;;;;;;;;;24.50;33.70;;;;;;5072530;28;19957;-64
2024/02/24 09:03:52;;;;;;;;;;;24.50;33.60;;;;;;5071650;28;19925;-64
2024/02/24 09:06:19;;;;;;;;;;;24.60;33.60;;;;;;5072430;28;19928;-64
2024/02/24 09:08:46;;;;;;;;;;;24.60;33.40;;;;;;5072568;28;19924;-64
2024/02/24 09:11:14;;;;;;;;;;;24.60;33.40;;;;;;5072490;28;19982;-64
2024/02/24 09:13:41;;;;;;;;;;;24.70;33.40;;;;;;5072951;28;20285;-64
2024/02/24 09:16:08;;;;;;;;;;;24.60;33.20;;;;;;5072559;28;20011;-64
2024/02/24 09:18:35;;;;;;;;;;;24.70;33.20;;;;;;5071184;28;19924;-64
2024/02/24 09:21:01;;;;;;;;;;;24.70;33.10;;;;;;5072598;28;19981;-64
2024/02/24 09:23:28;;;;;;;;;;;24.70;33.00;;;;;;5072831;28;19967;-64
2024/02/24 09:25:56;;;;;;;;;;;24.70;33.00;;;;;;5072874;28;20378;-64
2024/02/24 09:28:23;;;;;;;;;;;24.70;32.80;;;;;;5072712;28;19924;-64
2024/02/24 09:30:51;;;;;;;;;;;24.80;32.80;;;;;;5072697;28;19925;-64
2024/02/24 09:33:18;;;;;;;;;;;24.80;32.80;;;;;;5073042;28;19935;-64
2024/02/24 09:35:45;;;;;;;;;;;24.80;32.70;;;;;;5073030;28;20399;-64
2024/02/24 09:38:12;;;;;;;;;;;24.80;32.60;;;;;;5072629;28;19924;-64
2024/02/24 09:40:39;;;;;;;;;;;24.80;32.70;;;;;;5070831;28;20015;-64
2024/02/24 09:43:08;;;;;;;;;;;24.80;32.60;;;;;;5071871;28;19972;-64
2024/02/24 09:45:41;;;;;;;;;;;24.80;32.50;;;;;;5071585;28;19928;-65
2024/02/24 09:48:10;;;;;;;;;;;24.80;32.50;;;;;;5072690;28;19928;-64
2024/02/24 09:50:38;;;;;;;;;;;24.80;32.50;;;;;;5072543;28;19935;-65
2024/02/24 09:53:05;;;;;;;;;;;24.80;32.50;;;;;;5071197;28;20030;-64
2024/02/24 09:55:32;;;;;;;;;;;24.90;32.50;;;;;;5073369;28;19924;-65
2024/02/24 09:57:59;;;;;;;;;;;24.90;32.50;;;;;;5075762;28;19932;-64
2024/02/24 10:00:27;;;;;;;;;;;24.90;32.50;;;;;;5076385;28;19924;-64
2024/02/24 10:02:54;;;;;;;;;;;24.90;32.40;;;;;;5070727;28;19974;-64
2024/02/24 10:05:21;;;;;;;;;;;24.90;32.30;;;;;;5073575;28;20378;-64
2024/02/24 10:07:48;;;;;;;;;;;24.90;32.20;;;;;;5075488;28;19930;-65
2024/02/24 10:10:16;;;;;;;;;;;24.90;32.10;;;;;;5076288;28;20393;-65
2024/02/24 10:13:02;;;;;;;;;;;25.00;32.10;;;;;;5075413;28;19978;-64
2024/02/24 10:15:29;;;;;;;;;;;25.00;32.00;;;;;;5074910;28;20378;-64
2024/02/24 10:17:57;;;;;;;;;;;25.00;32.00;;;;;;5076079;28;19924;-65
2024/02/24 10:20:25;;;;;;;;;;;25.00;31.90;;;;;;5075630;28;20424;-64
2024/02/24 10:22:52;;;;;;;;;;;25.00;31.90;;;;;;5075898;28;19954;-64
2024/02/24 10:25:19;;;;;;;;;;;25.10;31.80;;;;;;5075778;28;19998;-64
2024/02/24 10:27:46;;;;;;;;;;;25.10;31.80;;;;;;5075655;28;19974;-64
2024/02/24 10:30:13;;;;;;;;;;;25.10;31.80;;;;;;5075484;28;19924;-64
2024/02/24 10:32:41;;;;;;;;;;;25.10;31.70;;;;;;5075599;28;19925;-64
2024/02/24 10:35:10;;;;;;;;;;;25.10;31.70;;;;;;5075595;28;20016;-64
2024/02/24 10:37:37;;;;;;;;;;;25.10;31.70;;;;;;5075815;28;19925;-65
2024/02/24 10:40:24;;;;;;;;;;;25.10;31.70;;;;;;5075600;28;19924;-64
2024/02/24 10:42:52;;;;;;;;;;;25.10;31.70;;;;;;5075069;28;19929;-64
2024/02/24 10:45:19;;;;;;;;;;;25.20;31.70;;;;;;5075668;28;19933;-64
2024/02/24 10:47:46;;;;;;;;;;;25.20;31.70;;;;;;5075080;28;19924;-64
2024/02/24 10:50:15;;;;;;;;;;;25.20;31.60;;;;;;5084727;28;19924;-64
2024/02/24 10:52:42;;;;;;;;;;;25.20;31.60;;;;;;5085989;28;19928;-64
2024/02/24 10:55:09;;;;;;;;;;;25.20;31.60;;;;;;5075167;28;19986;-64
2024/02/24 10:57:37;;;;;;;;;;;25.20;31.60;;;;;;5074918;28;19924;-64
2024/02/24 11:00:24;;;;;;;;;;;25.20;31.60;;;;;;5075370;28;19928;-64
2024/02/24 11:02:51;;;;;;;;;;;25.20;31.50;;;;;;5075007;28;19967;-64
2024/02/24 11:05:19;;;;;;;;;;;25.30;31.60;;;;;;5074956;28;19928;-64
2024/02/24 11:07:47;;;;;;;;;;;25.30;31.50;;;;;;5073885;28;19924;-64
2024/02/24 11:10:21;;;;;;;;;;;25.30;31.50;;;;;;5075087;28;19989;-64
2024/02/24 11:12:49;;;;;;;;;;;25.30;31.40;;;;;;5073950;28;19986;-64
2024/02/24 11:15:17;;;;;;;;;;;25.30;31.30;;;;;;5075248;28;19966;-64
2024/02/24 11:17:45;;;;;;;;;;;25.40;31.30;;;;;;5074812;28;19924;-65
2024/02/24 11:20:32;;;;;;;;;;;25.40;31.20;;;;;;5074834;28;20362;-64
2024/02/24 11:23:20;;;;;;;;;;;25.40;31.20;;;;;;5074351;28;20020;-64
2024/02/24 11:26:07;;;;;;;;;;;25.40;31.10;;;;;;5074577;28;20404;-64
2024/02/24 11:28:35;;;;;;;;;;;25.40;31.10;;;;;;5074661;28;19970;-64
2024/02/24 11:31:04;;;;;;;;;;;25.40;31.00;;;;;;5073469;28;20197;-64
2024/02/24 11:33:35;;;;;;;;;;;25.40;30.90;;;;;;5074598;28;19978;-64
2024/02/24 11:36:03;;;;;;;;;;;25.40;30.90;;;;;;5073372;28;20380;-64
2024/02/24 11:38:31;;;;;;;;;;;25.40;30.90;;;;;;5074392;28;19925;-64
2024/02/24 11:41:03;;;;;;;;;;;25.40;30.90;;;;;;5074584;28;19924;-64
2024/02/24 11:43:30;;;;;;;;;;;25.40;31.00;;;;;;5074542;28;19924;-64
2024/02/24 11:45:57;;;;;;;;;;;25.40;30.90;;;;;;5074710;28;19970;-64
2024/02/24 11:48:24;;;;;;;;;;;25.40;31.00;;;;;;5074401;28;20267;-64
2024/02/24 11:50:51;;;;;;;;;;;25.40;30.90;;;;;;5074768;28;19970;-64
2024/02/24 11:53:19;;;;;;;;;;;25.40;30.90;;;;;;5073910;28;19963;-64
2024/02/24 11:55:46;;;;;;;;;;;25.40;30.70;;;;;;5074638;28;19924;-64
2024/02/24 11:58:14;;;;;;;;;;;25.50;30.80;;;;;;5073987;28;19978;-64
2024/02/24 12:00:41;;;;;;;;;;;25.40;30.70;;;;;;5074018;28;20019;-64
2024/02/24 12:03:11;;;;;;;;;;;25.40;30.70;;;;;;5073976;28;20366;-64
2024/02/24 12:05:38;;;;;;;;;;;25.40;30.70;;;;;;5073907;28;20425;-64
2024/02/24 12:08:07;;;;;;;;;;;25.40;30.70;;;;;;5073016;28;19924;-64
2024/02/24 12:10:38;;;;;;;;;;;25.40;30.80;;;;;;5073849;28;19964;-64
2024/02/24 12:13:10;;;;;;;;;;;25.40;30.70;;;;;;5073793;28;19978;-64
2024/02/24 12:15:37;;;;;;;;;;;25.50;30.80;;;;;;5074104;28;20018;-64
2024/02/24 12:18:05;;;;;;;;;;;25.50;30.70;;;;;;5073455;28;19925;-64
2024/02/24 12:20:36;;;;;;;;;;;25.50;30.70;;;;;;5074106;28;20011;-64
2024/02/24 12:23:04;;;;;;;;;;;25.50;30.40;;;;;;5073565;28;19928;-64
2024/02/24 12:25:32;;;;;;;;;;;25.50;30.50;;;;;;5073624;28;19924;-64
2024/02/24 12:27:59;;;;;;;;;;;25.40;30.40;;;;;;5073338;28;20433;-64
2024/02/24 12:30:26;;;;;;;;;;;25.40;30.40;;;;;;5073552;28;20023;-64
2024/02/24 12:32:54;;;;;;;;;;;25.40;30.40;;;;;;5073447;28;20361;-64
2024/02/24 12:35:22;;;;;;;;;;;25.40;30.50;;;;;;5073417;28;19924;-64
2024/02/24 12:37:51;;;;;;;;;;;25.40;30.50;;;;;;5073505;28;19935;-64
2024/02/24 12:40:25;;;;;;;;;;;25.40;30.50;;;;;;5073558;28;19925;-64
2024/02/24 12:42:51;;;;;;;;;;;25.40;30.50;;;;;;5073177;28;19964;-64
2024/02/24 12:45:18;;;;;;;;;;;25.40;30.40;;;;;;5073185;28;19928;-64
2024/02/24 12:47:49;;;;;;;;;;;25.40;30.40;;;;;;5073362;28;19925;-64
2024/02/24 12:50:20;;;;;;;;;;;25.40;30.50;;;;;;5073645;28;19928;-64
2024/02/24 12:52:47;;;;;;;;;;;25.40;30.30;;;;;;5071973;28;19931;-64
2024/02/24 12:55:14;;;;;;;;;;;25.30;30.30;;;;;;5073489;28;19928;-64
2024/02/24 12:57:41;;;;;;;;;;;25.30;30.30;;;;;;5072858;28;20023;-64
2024/02/24 13:00:09;;;;;;;;;;;25.40;30.30;;;;;;5073296;28;19925;-64
2024/02/24 13:02:36;;;;;;;;;;;25.30;30.30;;;;;;5073122;28;20023;-64
2024/02/24 13:05:04;;;;;;;;;;;25.30;30.30;;;;;;5073378;28;20262;-65
2024/02/24 13:07:31;;;;;;;;;;;25.30;30.30;;;;;;5073090;28;19924;-64
2024/02/24 13:09:58;;;;;;;;;;;25.30;30.30;;;;;;5073086;28;19925;-64
2024/02/24 13:12:25;;;;;;;;;;;25.30;30.30;;;;;;5073037;28;20393;-64
2024/02/24 13:14:52;;;;;;;;;;;25.30;30.40;;;;;;5072936;28;19924;-64
2024/02/24 13:17:22;;;;;;;;;;;25.30;30.40;;;;;;5072923;28;20389;-64
2024/02/24 13:19:49;;;;;;;;;;;25.30;30.40;;;;;;5072939;28;20439;-64
2024/02/24 13:22:19;;;;;;;;;;;25.30;30.40;;;;;;5072828;28;19978;-64
2024/02/24 13:24:46;;;;;;;;;;;25.30;30.30;;;;;;5072931;28;19977;-64
2024/02/24 13:27:13;;;;;;;;;;;25.20;30.30;;;;;;5072800;28;19950;-64
2024/02/24 13:29:40;;;;;;;;;;;25.20;30.20;;;;;;5073164;28;20001;-64
2024/02/24 13:32:07;;;;;;;;;;;25.20;30.20;;;;;;5076768;28;20014;-64
2024/02/24 13:34:34;;;;;;;;;;;25.20;30.20;;;;;;5077182;28;19962;-64
2024/02/24 13:37:00;;;;;;;;;;;25.20;30.10;;;;;;5076390;28;19924;-64
2024/02/24 13:39:28;;;;;;;;;;;25.20;30.10;;;;;;5076700;28;20362;-64
2024/02/24 13:41:56;;;;;;;;;;;25.20;30.10;;;;;;5076941;28;19931;-64
2024/02/24 13:44:22;;;;;;;;;;;25.20;30.00;;;;;;5076645;28;19931;-64
2024/02/24 13:46:50;;;;;;;;;;;25.20;30.00;;;;;;5076678;28;19924;-64
2024/02/24 13:49:17;;;;;;;;;;;25.20;30.00;;;;;;5076320;28;19935;-64
2024/02/24 13:51:45;;;;;;;;;;;25.20;30.00;;;;;;5075141;28;19925;-64
2024/02/24 13:54:12;;;;;;;;;;;25.20;30.00;;;;;;5076919;28;19925;-64
2024/02/24 13:56:39;;;;;;;;;;;25.20;30.00;;;;;;5076705;28;19948;-64
2024/02/24 13:59:07;;;;;;;;;;;25.10;30.00;;;;;;5076380;28;20000;-64
2024/02/24 14:01:34;;;;;;;;;;;25.20;30.00;;;;;;5076291;28;19924;-64
2024/02/24 14:04:02;;;;;;;;;;;25.20;30.10;;;;;;5076148;28;19951;-64
2024/02/24 14:06:29;;;;;;;;;;;25.20;30.00;;;;;;5076132;28;19932;-64
2024/02/24 14:08:56;;;;;;;;;;;25.10;30.00;;;;;;5074986;28;20305;-64
2024/02/24 14:11:23;;;;;;;;;;;25.10;30.00;;;;;;5075962;28;20391;-64
2024/02/24 14:13:51;;;;;;;;;;;25.10;30.10;;;;;;5076296;28;20019;-64
2024/02/24 14:16:18;;;;;;;;;;;25.10;30.10;;;;;;5076540;28;19924;-65
2024/02/24 14:18:45;;;;;;;;;;;25.00;30.10;;;;;;5076037;28;19971;-64